Time;durP1;ratioP1;P1;durP2;ratioP2;P2;SDS_P1;SDS_P2;PMS_P1;PMS_P2;Temp;Humidity;BMP_temperature;BMP_pressure;BME280_temperature;BME280_humidity;BME280_pressure;Samples;Min_cycle;Max_cycle;Signal;HPM_P1;HPM_P2
2022/07/20 00:02:04;;;;;;;0.40;0.40;;;;;;;24.20;nan;95675.13;5022594;28;20474;-70
2022/07/20 00:04:31;;;;;;;0.20;0.20;;;;;;;24.38;nan;95673.16;5040401;28;20193;-69
2022/07/20 00:06:58;;;;;;;0.40;0.40;;;;;;;24.23;nan;95666.47;5030519;28;20208;-68
2022/07/20 00:12:11;;;;;;;0.50;0.50;;;;;;;24.13;nan;95664.13;5021425;28;20193;-69
2022/07/20 00:14:38;;;;;;;0.23;0.23;;;;;;;23.85;nan;95670.97;5033199;28;20208;-70
2022/07/20 00:17:05;;;;;;;0.50;0.30;;;;;;;23.82;nan;95661.72;5032151;28;20217;-71
2022/07/20 00:19:32;;;;;;;0.60;0.50;;;;;;;23.86;nan;95656.50;5040666;28;20184;-70
2022/07/20 00:21:59;;;;;;;0.53;0.43;;;;;;;23.71;nan;95665.03;5042998;28;20231;-70
2022/07/20 00:24:26;;;;;;;0.20;0.20;;;;;;;23.62;nan;95661.59;5043578;28;20199;-69
2022/07/20 00:26:52;;;;;;;0.20;0.20;;;;;;;23.33;nan;95666.84;5037989;28;20258;-69
2022/07/20 00:29:19;;;;;;;0.83;0.30;;;;;;;23.54;nan;95654.41;5034175;28;20229;-70
2022/07/20 00:31:46;;;;;;;0.13;0.13;;;;;;;23.61;nan;95660.03;5049991;28;20199;-69
2022/07/20 00:34:14;;;;;;;0.60;0.60;;;;;;;23.78;nan;95659.97;5049880;28;20216;-69
2022/07/20 00:36:41;;;;;;;0.20;0.20;;;;;;;23.69;nan;95657.34;5017073;28;20214;-69
2022/07/20 00:39:09;;;;;;;0.30;0.30;;;;;;;23.74;nan;95661.75;5027756;28;20196;-70
2022/07/20 00:41:36;;;;;;;0.23;0.23;;;;;;;23.74;nan;95654.47;5034168;28;20189;-70
2022/07/20 00:44:08;;;;;;;0.63;0.50;;;;;;;23.72;nan;95661.28;5017844;28;20189;-69
2022/07/20 00:46:40;;;;;;;0.60;0.60;;;;;;;23.61;nan;95665.41;5013904;28;20198;-69
2022/07/20 00:49:09;;;;;;;0.20;0.20;;;;;;;23.59;nan;95673.75;5045537;28;20250;-69
2022/07/20 00:51:39;;;;;;;0.27;0.27;;;;;;;23.79;nan;95661.56;5047048;28;20184;-70
2022/07/20 00:54:07;;;;;;;0.30;0.30;;;;;;;23.99;nan;95658.19;5021572;28;20200;-70
2022/07/20 00:56:35;;;;;;;0.20;0.20;;;;;;;23.99;nan;95660.88;5020704;28;20775;-69
2022/07/20 00:59:05;;;;;;;0.20;0.20;;;;;;;23.96;nan;95661.47;5029903;28;20193;-71
2022/07/20 01:01:33;;;;;;;0.43;0.43;;;;;;;23.97;nan;95663.88;5030417;28;20205;-69
2022/07/20 01:04:01;;;;;;;0.20;0.20;;;;;;;23.89;nan;95655.84;5025282;28;20201;-70
2022/07/20 01:06:27;;;;;;;0.17;0.17;;;;;;;23.42;nan;95652.38;5034704;28;20200;-69
2022/07/20 01:08:55;;;;;;;0.40;0.40;;;;;;;23.10;nan;95656.28;5012409;28;20635;-69
2022/07/20 01:11:22;;;;;;;0.20;0.20;;;;;;;23.41;nan;95660.72;5042070;28;20200;-69
2022/07/20 01:13:49;;;;;;;0.20;0.20;;;;;;;23.41;nan;95655.38;5040230;28;20651;-70
2022/07/20 01:16:17;;;;;;;0.37;0.37;;;;;;;23.51;nan;95655.00;5030166;28;20589;-71
2022/07/20 01:18:44;;;;;;;0.40;0.40;;;;;;;23.65;nan;95660.97;5018387;28;20216;-69
2022/07/20 01:21:11;;;;;;;0.20;0.20;;;;;;;23.55;nan;95655.94;5030120;28;20243;-70
2022/07/20 01:23:38;;;;;;;0.70;0.63;;;;;;;23.62;nan;95664.28;5034837;28;20255;-71
2022/07/20 01:26:05;;;;;;;0.10;0.10;;;;;;;23.68;nan;95660.34;5022743;28;20200;-70
2022/07/20 01:28:32;;;;;;;0.20;0.20;;;;;;;23.75;nan;95657.94;5048549;28;20207;-70
2022/07/20 01:30:59;;;;;;;0.30;0.30;;;;;;;23.61;nan;95644.00;5048813;28;20181;-69
2022/07/20 01:33:26;;;;;;;0.30;0.30;;;;;;;23.41;nan;95633.97;5028682;28;20190;-69
2022/07/20 01:35:53;;;;;;;0.30;0.30;;;;;;;23.49;nan;95646.50;5018589;28;20220;-70
2022/07/20 01:38:20;;;;;;;0.20;0.20;;;;;;;23.48;nan;95644.97;5045448;28;20707;-70
2022/07/20 01:40:47;;;;;;;0.37;0.37;;;;;;;23.37;nan;95651.75;5033341;28;20244;-70
2022/07/20 01:43:14;;;;;;;0.40;0.40;;;;;;;23.37;nan;95651.75;5010955;28;20287;-70
2022/07/20 01:45:41;;;;;;;0.10;0.10;;;;;;;23.38;nan;95650.63;5036584;28;20572;-71
2022/07/20 01:48:08;;;;;;;0.10;0.10;;;;;;;23.39;nan;95657.56;5034015;28;20203;-70
2022/07/20 01:50:37;;;;;;;0.10;0.10;;;;;;;23.25;nan;95646.22;5043873;28;20207;-70
2022/07/20 01:53:05;;;;;;;0.20;0.20;;;;;;;23.26;nan;95653.13;5040906;28;20205;-71
2022/07/20 01:55:32;;;;;;;0.67;0.67;;;;;;;23.33;nan;95650.81;5025075;28;20208;-69
2022/07/20 01:57:59;;;;;;;0.63;0.63;;;;;;;23.35;nan;95656.63;5021735;28;20221;-72
2022/07/20 02:00:27;;;;;;;0.30;0.30;;;;;;;23.49;nan;95662.56;5024540;28;20284;-69
2022/07/20 02:02:54;;;;;;;3.30;1.53;;;;;;;23.47;nan;95651.41;5032028;28;20294;-70
2022/07/20 02:05:20;;;;;;;0.57;0.57;;;;;;;23.36;nan;95658.97;5024554;28;20192;-69
2022/07/20 02:07:47;;;;;;;0.10;0.10;;;;;;;23.29;nan;95663.19;5049348;28;20204;-70
2022/07/20 02:10:15;;;;;;;2.67;1.13;;;;;;;23.25;nan;95662.28;5023676;28;20190;-70
2022/07/20 02:12:42;;;;;;;0.47;0.47;;;;;;;23.30;nan;95664.81;5033437;28;20223;-69
2022/07/20 02:15:11;;;;;;;0.60;0.50;;;;;;;23.24;nan;95666.84;5011679;28;20863;-70
2022/07/20 02:17:38;;;;;;;0.77;0.77;;;;;;;23.12;nan;95662.13;5026886;28;20687;-69
2022/07/20 02:20:06;;;;;;;2.93;0.93;;;;;;;23.23;nan;95669.81;5024275;28;20200;-70
2022/07/20 02:22:32;;;;;;;15.30;1.40;;;;;;;23.21;nan;95667.44;5040822;28;20193;-70
2022/07/20 02:24:59;;;;;;;0.70;0.30;;;;;;;23.25;nan;95668.41;5032512;28;20580;-71
2022/07/20 02:27:26;;;;;;;1.63;1.13;;;;;;;23.25;nan;95670.31;5020496;28;20222;-70
2022/07/20 02:29:54;;;;;;;0.20;0.20;;;;;;;23.36;nan;95658.19;5028932;28;20650;-71
2022/07/20 02:32:21;;;;;;;0.40;0.40;;;;;;;23.43;nan;95658.50;5041570;28;20275;-70
2022/07/20 02:34:48;;;;;;;0.90;0.83;;;;;;;23.29;nan;95655.19;5024236;28;20722;-69
2022/07/20 02:37:15;;;;;;;1.27;0.80;;;;;;;23.46;nan;95652.50;5045261;28;20213;-70
2022/07/20 02:39:41;;;;;;;0.63;0.63;;;;;;;23.50;nan;95664.91;5044364;28;20206;-70
2022/07/20 02:42:08;;;;;;;1.13;1.03;;;;;;;23.35;nan;95662.75;5030394;28;20193;-69
2022/07/20 02:44:35;;;;;;;5.20;0.73;;;;;;;23.24;nan;95669.50;5042876;28;20246;-70
2022/07/20 02:47:02;;;;;;;0.20;0.20;;;;;;;23.25;nan;95672.97;5037124;28;20296;-71
2022/07/20 02:49:29;;;;;;;0.20;0.20;;;;;;;23.30;nan;95672.84;5050632;28;20196;-70
2022/07/20 02:51:56;;;;;;;0.27;0.27;;;;;;;23.23;nan;95675.94;5046537;28;20731;-69
2022/07/20 02:54:23;;;;;;;4.33;1.40;;;;;;;23.23;nan;95686.63;5019698;28;20566;-69
2022/07/20 02:56:50;;;;;;;0.20;0.20;;;;;;;23.21;nan;95677.38;5018480;28;20194;-69
2022/07/20 02:59:17;;;;;;;0.63;0.40;;;;;;;23.10;nan;95676.91;5041366;28;20215;-69
2022/07/20 03:01:44;;;;;;;0.27;0.27;;;;;;;23.24;nan;95680.22;5024308;28;20226;-68
2022/07/20 03:04:11;;;;;;;0.50;0.50;;;;;;;23.30;nan;95681.66;5051864;28;20694;-69
2022/07/20 03:06:38;;;;;;;1.70;0.83;;;;;;;22.80;nan;95683.97;5037840;28;20258;-70
2022/07/20 03:09:05;;;;;;;8.77;2.07;;;;;;;22.89;nan;95679.41;5018414;28;20197;-69
2022/07/20 03:11:32;;;;;;;0.77;0.60;;;;;;;22.75;nan;95681.47;5050316;28;20196;-69
2022/07/20 03:13:59;;;;;;;1.03;0.93;;;;;;;22.82;nan;95687.13;5017296;28;20254;-69
2022/07/20 03:16:26;;;;;;;0.77;0.77;;;;;;;22.80;nan;95692.00;5030942;28;20614;-70
2022/07/20 03:18:53;;;;;;;20.00;1.57;;;;;;;22.66;nan;95683.31;5045804;28;20299;-69
2022/07/20 03:21:21;;;;;;;0.20;0.20;;;;;;;22.67;nan;95682.22;5041490;28;20311;-69
2022/07/20 03:23:48;;;;;;;2.10;1.00;;;;;;;22.46;nan;95689.22;5049104;28;20196;-70
2022/07/20 03:26:15;;;;;;;0.77;0.60;;;;;;;22.46;nan;95694.56;5039356;28;21592;-69
2022/07/20 03:28:42;;;;;;;0.30;0.30;;;;;;;22.52;nan;95695.97;5050446;28;20197;-70
2022/07/20 03:31:09;;;;;;;0.47;0.47;;;;;;;22.50;nan;95700.84;5025164;28;20534;-69
2022/07/20 03:33:37;;;;;;;0.43;0.43;;;;;;;22.69;nan;95706.75;5024325;28;20208;-70
2022/07/20 03:36:04;;;;;;;0.67;0.63;;;;;;;22.33;nan;95695.47;5017071;28;20197;-70
2022/07/20 03:38:31;;;;;;;0.77;0.63;;;;;;;22.44;nan;95707.44;5042593;28;20212;-69
2022/07/20 03:41:01;;;;;;;0.40;0.40;;;;;;;22.55;nan;95703.44;5033140;28;20197;-70
2022/07/20 03:43:28;;;;;;;0.53;0.53;;;;;;;22.61;nan;95709.41;5031074;28;20193;-69
2022/07/20 03:45:55;;;;;;;0.93;0.60;;;;;;;22.54;nan;95722.38;5028555;28;20192;-69
2022/07/20 03:48:22;;;;;;;0.20;0.20;;;;;;;22.46;nan;95715.94;5028474;28;20196;-70
2022/07/20 03:50:49;;;;;;;3.50;1.27;;;;;;;22.76;nan;95712.41;5050771;28;20227;-70
2022/07/20 03:53:16;;;;;;;0.20;0.20;;;;;;;22.78;nan;95712.88;5043972;28;20189;-69
2022/07/20 03:55:43;;;;;;;0.33;0.33;;;;;;;22.73;nan;95720.25;5027665;28;20205;-69
2022/07/20 03:58:10;;;;;;;0.30;0.30;;;;;;;22.83;nan;95720.75;5038628;28;20738;-69
2022/07/20 04:00:37;;;;;;;0.37;0.30;;;;;;;22.93;nan;95717.78;5029047;28;20710;-70
2022/07/20 04:03:03;;;;;;;0.27;0.27;;;;;;;22.81;nan;95714.94;5041331;28;20192;-70
2022/07/20 04:05:30;;;;;;;0.50;0.50;;;;;;;22.87;nan;95718.25;5022335;28;20209;-64
2022/07/20 04:07:57;;;;;;;0.20;0.20;;;;;;;22.82;nan;95716.53;5037315;28;20284;-64
2022/07/20 04:10:24;;;;;;;0.27;0.27;;;;;;;22.75;nan;95721.53;5020354;28;20227;-64
2022/07/20 04:12:51;;;;;;;0.57;0.53;;;;;;;22.64;nan;95716.78;5016083;28;20220;-64
2022/07/20 04:15:18;;;;;;;0.77;0.77;;;;;;;22.61;nan;95717.41;5021791;28;20194;-63
2022/07/20 04:17:45;;;;;;;0.93;0.93;;;;;;;22.69;nan;95725.44;5038879;28;20597;-63
2022/07/20 04:20:31;;;;;;;0.60;0.60;;;;;;;22.59;nan;95719.63;5036853;28;20199;-64
2022/07/20 04:22:58;;;;;;;0.20;0.20;;;;;;;22.58;nan;95724.16;5021269;28;20636;-63
2022/07/20 04:25:24;;;;;;;0.87;0.87;;;;;;;22.58;nan;95721.50;5032194;28;20344;-64
2022/07/20 04:27:51;;;;;;;0.67;0.63;;;;;;;22.71;nan;95722.47;5037600;28;20221;-63
2022/07/20 04:30:19;;;;;;;0.20;0.20;;;;;;;22.90;nan;95726.41;5042978;28;20250;-63
2022/07/20 04:32:45;;;;;;;0.60;0.60;;;;;;;22.95;nan;95723.63;5029026;28;20284;-64
2022/07/20 04:35:13;;;;;;;1.43;0.83;;;;;;;22.97;nan;95716.03;5043745;28;20199;-64
2022/07/20 04:37:40;;;;;;;4.80;0.73;;;;;;;22.82;nan;95724.53;5033604;28;20591;-66
2022/07/20 04:40:07;;;;;;;1.17;0.70;;;;;;;22.63;nan;95729.34;5022843;28;20211;-64
2022/07/20 04:42:34;;;;;;;0.10;0.10;;;;;;;22.80;nan;95718.72;5014098;28;20685;-66
2022/07/20 04:45:01;;;;;;;0.77;0.77;;;;;;;22.87;nan;95721.69;5016948;28;20193;-63
2022/07/20 04:47:28;;;;;;;0.37;0.37;;;;;;;23.08;nan;95732.59;5022201;28;20750;-64
2022/07/20 04:49:55;;;;;;;0.57;0.57;;;;;;;23.10;nan;95736.50;5008725;28;20281;-63
2022/07/20 04:52:22;;;;;;;0.10;0.10;;;;;;;22.93;nan;95725.81;5027761;28;20650;-64
2022/07/20 04:54:49;;;;;;;0.40;0.40;;;;;;;23.08;nan;95738.69;5030692;28;20209;-64
2022/07/20 04:57:16;;;;;;;0.40;0.40;;;;;;;23.25;nan;95739.84;5015439;28;20200;-64
2022/07/20 04:59:43;;;;;;;0.70;0.70;;;;;;;22.98;nan;95739.00;5015327;28;20731;-64
2022/07/20 05:02:10;;;;;;;0.63;0.50;;;;;;;22.93;nan;95735.72;5041406;28;20687;-63
2022/07/20 05:04:37;;;;;;;0.77;0.77;;;;;;;23.19;nan;95735.72;5028355;28;20197;-65
2022/07/20 05:07:04;;;;;;;0.10;0.10;;;;;;;23.07;nan;95736.34;5031427;28;20200;-65
2022/07/20 05:09:31;;;;;;;0.33;0.33;;;;;;;22.84;nan;95722.34;5019645;28;20200;-63
2022/07/20 05:11:58;;;;;;;0.37;0.37;;;;;;;22.64;nan;95744.31;5039234;28;20690;-64
2022/07/20 05:14:25;;;;;;;0.97;0.90;;;;;;;22.69;nan;95744.16;5043240;28;20282;-62
2022/07/20 05:16:52;;;;;;;0.40;0.40;;;;;;;22.45;nan;95740.25;5033554;28;20202;-63
2022/07/20 05:19:19;;;;;;;0.30;0.30;;;;;;;22.92;nan;95745.59;5008636;28;20225;-63
2022/07/20 05:21:46;;;;;;;0.63;0.63;;;;;;;23.00;nan;95750.19;5036162;28;20672;-66
2022/07/20 05:24:13;;;;;;;0.20;0.20;;;;;;;23.20;nan;95746.09;5020172;28;20201;-63
2022/07/20 05:26:40;;;;;;;1.10;1.00;;;;;;;23.70;nan;95744.53;5037799;28;20222;-65
2022/07/20 05:29:07;;;;;;;0.20;0.20;;;;;;;23.69;nan;95744.84;5018887;28;20197;-64
2022/07/20 05:31:34;;;;;;;0.37;0.37;;;;;;;23.81;nan;95739.66;5014518;28;20209;-63
2022/07/20 05:34:01;;;;;;;1.30;0.97;;;;;;;23.50;nan;95747.09;5020075;28;20190;-63
2022/07/20 05:36:28;;;;;;;0.73;0.60;;;;;;;23.47;nan;95750.38;5023207;28;20193;-67
2022/07/20 05:38:55;;;;;;;0.40;0.40;;;;;;;23.55;nan;95741.56;5028817;28;20231;-64
2022/07/20 05:41:22;;;;;;;11.73;2.20;;;;;;;24.03;nan;95744.81;5018279;28;20204;-65
2022/07/20 05:43:49;;;;;;;0.50;0.50;;;;;;;23.94;nan;95738.69;5031120;28;20204;-63
2022/07/20 05:46:16;;;;;;;0.33;0.33;;;;;;;23.68;nan;95740.63;5042577;28;20585;-63
2022/07/20 05:48:43;;;;;;;1.00;0.90;;;;;;;23.65;nan;95736.66;5045908;28;20212;-65
2022/07/20 05:51:10;;;;;;;0.57;0.53;;;;;;;23.95;nan;95745.59;5032369;28;20686;-64
2022/07/20 05:53:37;;;;;;;0.67;0.67;;;;;;;24.17;nan;95742.72;5025045;28;20190;-63
2022/07/20 05:56:04;;;;;;;0.63;0.63;;;;;;;23.76;nan;95745.16;5031363;28;20719;-64
2022/07/20 05:58:31;;;;;;;0.20;0.20;;;;;;;23.91;nan;95744.66;5047877;28;20683;-64
2022/07/20 06:00:58;;;;;;;0.20;0.20;;;;;;;23.91;nan;95744.66;5054044;28;20257;-63
2022/07/20 06:03:25;;;;;;;0.83;0.80;;;;;;;24.21;nan;95742.88;5024339;28;20208;-65
2022/07/20 06:05:52;;;;;;;0.40;0.40;;;;;;;24.01;nan;95744.38;5038227;28;20259;-63
2022/07/20 06:08:19;;;;;;;0.10;0.10;;;;;;;24.03;nan;95744.81;5025901;28;20193;-64
2022/07/20 06:10:46;;;;;;;0.40;0.40;;;;;;;24.33;nan;95751.81;5038820;28;20617;-63
2022/07/20 06:13:13;;;;;;;0.40;0.40;;;;;;;24.68;nan;95747.88;5024759;28;20193;-65
2022/07/20 06:15:40;;;;;;;0.33;0.33;;;;;;;25.04;nan;95739.31;5029944;28;20208;-64
2022/07/20 06:18:07;;;;;;;0.73;0.73;;;;;;;24.74;nan;95746.59;5047175;28;20212;-64
2022/07/20 06:20:35;;;;;;;0.20;0.20;;;;;;;24.90;nan;95744.94;5052045;28;20602;-64
2022/07/20 06:23:02;;;;;;;0.57;0.57;;;;;;;25.06;nan;95750.50;5051850;28;20224;-65
2022/07/20 06:25:29;;;;;;;0.87;0.83;;;;;;;24.57;nan;95749.34;5043913;28;20298;-64
2022/07/20 06:27:58;;;;;;;0.40;0.40;;;;;;;25.16;nan;95746.66;5032169;28;20239;-64
2022/07/20 06:30:25;;;;;;;0.50;0.50;;;;;;;25.19;nan;95740.63;5051508;28;20196;-63
2022/07/20 06:32:53;;;;;;;0.20;0.20;;;;;;;24.38;nan;95735.53;5025559;28;20198;-66
2022/07/20 06:35:21;;;;;;;0.30;0.30;;;;;;;24.41;nan;95737.59;5048820;28;20245;-66
2022/07/20 06:37:48;;;;;;;0.57;0.57;;;;;;;24.96;nan;95735.56;5040162;28;20664;-66
2022/07/20 06:40:15;;;;;;;0.20;0.20;;;;;;;24.61;nan;95736.88;5035827;28;20223;-64
2022/07/20 06:42:42;;;;;;;0.30;0.30;;;;;;;25.08;nan;95730.31;5042199;28;20201;-66
2022/07/20 06:45:10;;;;;;;0.60;0.60;;;;;;;25.31;nan;95730.75;5048006;28;20219;-66
2022/07/20 06:47:37;;;;;;;0.33;0.33;;;;;;;24.98;nan;95728.00;5035079;28;20201;-65
2022/07/20 06:50:04;;;;;;;0.87;0.87;;;;;;;24.97;nan;95723.75;5025666;28;20672;-64
2022/07/20 06:52:32;;;;;;;0.20;0.20;;;;;;;25.01;nan;95727.34;5038296;28;20628;-66
2022/07/20 06:54:59;;;;;;;0.30;0.30;;;;;;;25.59;nan;95720.28;5023054;28;20225;-65
2022/07/20 06:57:26;;;;;;;0.30;0.30;;;;;;;25.20;nan;95726.13;5019879;28;20668;-64
2022/07/20 06:59:53;;;;;;;0.23;0.23;;;;;;;25.92;nan;95721.06;5017778;28;20237;-64
2022/07/20 07:02:19;;;;;;;0.60;0.60;;;;;;;26.18;nan;95720.81;5031948;28;20186;-66
2022/07/20 07:04:48;;;;;;;0.50;0.50;;;;;;;26.36;nan;95717.56;5019196;28;20661;-65
2022/07/20 07:07:15;;;;;;;4.10;3.63;;;;;;;26.57;nan;95712.09;5020772;28;20203;-66
2022/07/20 07:09:41;;;;;;;4.17;2.80;;;;;;;26.69;nan;95712.91;5023198;28;20203;-67
2022/07/20 07:12:09;;;;;;;0.80;0.80;;;;;;;26.67;nan;95709.75;5030608;28;20201;-67
2022/07/20 07:14:36;;;;;;;0.83;0.83;;;;;;;26.79;nan;95714.34;5030825;28;20197;-67
2022/07/20 07:17:03;;;;;;;0.50;0.50;;;;;;;26.82;nan;95711.00;5049377;28;20192;-66
2022/07/20 07:19:30;;;;;;;5.97;0.70;;;;;;;26.66;nan;95707.41;5048777;28;20224;-65
2022/07/20 07:21:57;;;;;;;0.83;0.83;;;;;;;26.48;nan;95714.09;5025717;28;20589;-67
2022/07/20 07:24:24;;;;;;;0.40;0.40;;;;;;;26.49;nan;95710.31;5024799;28;20204;-65
2022/07/20 07:26:51;;;;;;;0.37;0.37;;;;;;;26.31;nan;95707.06;5030371;28;20738;-66
2022/07/20 07:29:19;;;;;;;0.43;0.43;;;;;;;26.96;nan;95701.44;5031467;28;20211;-63
2022/07/20 07:31:46;;;;;;;0.50;0.50;;;;;;;26.86;nan;95707.28;5048736;28;20192;-63
2022/07/20 07:34:13;;;;;;;1.13;0.60;;;;;;;27.26;nan;95698.44;5040685;28;20219;-65
2022/07/20 07:36:41;;;;;;;0.20;0.20;;;;;;;27.47;nan;95705.25;5045050;28;20201;-65
2022/07/20 07:39:08;;;;;;;0.53;0.53;;;;;;;27.33;nan;95709.44;5030886;28;20606;-64
2022/07/20 07:41:36;;;;;;;0.40;0.40;;;;;;;26.97;nan;95697.63;5030605;28;20572;-63
2022/07/20 07:44:03;;;;;;;0.33;0.33;;;;;;;26.89;nan;95706.63;5025212;28;20660;-70
2022/07/20 07:46:30;;;;;;;0.30;0.30;;;;;;;27.13;nan;95694.22;5050796;28;20281;-65
2022/07/20 07:48:57;;;;;;;0.53;0.53;;;;;;;27.54;nan;95699.25;5031203;28;20209;-70
2022/07/20 07:51:24;;;;;;;3.13;2.80;;;;;;;27.88;nan;95696.72;5019689;28;20215;-65
2022/07/20 07:53:51;;;;;;;1.90;1.80;;;;;;;27.89;nan;95694.81;5045888;28;20681;-65
2022/07/20 07:56:18;;;;;;;0.57;0.57;;;;;;;27.49;nan;95696.81;5024876;28;20198;-64
2022/07/20 07:58:45;;;;;;;1.20;1.03;;;;;;;27.00;nan;95696.94;5038636;28;20223;-66
2022/07/20 08:01:31;;;;;;;0.80;0.80;;;;;;;26.61;nan;95694.16;5036571;28;20205;-65
2022/07/20 08:03:58;;;;;;;4.47;2.33;;;;;;;27.25;nan;95689.59;5038785;28;20542;-63
2022/07/20 08:06:25;;;;;;;1.30;1.20;;;;;;;27.82;nan;95683.88;5022132;28;20676;-67
2022/07/20 08:08:52;;;;;;;0.63;0.63;;;;;;;27.89;nan;95682.13;5028641;28;20197;-68
2022/07/20 08:11:24;;;;;;;0.20;0.20;;;;;;;28.16;nan;95683.22;5027119;28;20706;-68
2022/07/20 08:13:53;;;;;;;0.40;0.40;;;;;;;28.57;nan;95677.31;5017484;28;20594;-62
2022/07/20 08:16:20;;;;;;;1.13;0.80;;;;;;;28.08;nan;95665.31;5034047;28;20198;-66
2022/07/20 08:18:47;;;;;;;0.30;0.30;;;;;;;28.42;nan;95664.63;5038599;28;20224;-63
2022/07/20 08:21:14;;;;;;;0.70;0.67;;;;;;;28.66;nan;95669.81;5029976;28;20290;-63
2022/07/20 08:23:41;;;;;;;0.63;0.63;;;;;;;28.71;nan;95674.94;5042609;28;20706;-65
2022/07/20 08:26:08;;;;;;;10.27;1.50;;;;;;;28.81;nan;95669.00;5026000;28;20258;-63
2022/07/20 08:28:36;;;;;;;0.63;0.63;;;;;;;29.16;nan;95665.53;5010228;28;20695;-67
2022/07/20 08:31:03;;;;;;;0.40;0.40;;;;;;;29.15;nan;95653.94;5009689;28;20251;-68
2022/07/20 08:33:31;;;;;;;2.63;1.03;;;;;;;29.32;nan;95656.22;5010119;28;20197;-64
2022/07/20 08:35:58;;;;;;;6.63;5.20;;;;;;;29.31;nan;95653.84;5048620;28;20864;-64
2022/07/20 08:38:25;;;;;;;0.33;0.33;;;;;;;29.45;nan;95640.66;5037853;28;20220;-65
2022/07/20 08:40:52;;;;;;;0.53;0.53;;;;;;;29.54;nan;95643.91;5047474;28;20200;-64
2022/07/20 08:43:19;;;;;;;2.00;1.53;;;;;;;28.85;nan;95660.97;5049971;28;20224;-67
2022/07/20 08:45:47;;;;;;;0.30;0.30;;;;;;;29.66;nan;95659.94;5047226;28;20193;-68
2022/07/20 08:48:18;;;;;;;0.60;0.60;;;;;;;29.54;nan;95654.72;5038740;28;20195;-64
2022/07/20 08:50:47;;;;;;;0.20;0.20;;;;;;;30.01;nan;95649.81;5021887;28;20201;-64
2022/07/20 08:53:15;;;;;;;0.30;0.30;;;;;;;30.15;nan;95639.22;5034471;28;20188;-66
2022/07/20 08:55:42;;;;;;;0.23;0.23;;;;;;;29.90;nan;95646.94;5022133;28;20197;-62
2022/07/20 08:58:10;;;;;;;0.63;0.57;;;;;;;30.21;nan;95640.50;5037545;28;20193;-67
2022/07/20 09:00:38;;;;;;;0.43;0.43;;;;;;;30.13;nan;95638.81;5010780;28;20226;-63
2022/07/20 09:03:07;;;;;;;0.40;0.40;;;;;;;29.75;nan;95638.91;5013675;28;20638;-64
2022/07/20 09:05:38;;;;;;;0.60;0.60;;;;;;;30.14;nan;95640.38;5029285;28;20723;-63
2022/07/20 09:08:10;;;;;;;1.43;1.13;;;;;;;30.32;nan;95638.75;5020162;28;20217;-65
2022/07/20 09:10:39;;;;;;;0.90;0.40;;;;;;;30.27;nan;95632.88;5020751;28;20224;-66
2022/07/20 09:13:14;;;;;;;0.70;0.70;;;;;;;30.85;nan;95631.44;5038589;28;20257;-63
2022/07/20 09:15:43;;;;;;;0.40;0.40;;;;;;;30.84;nan;95641.47;5036095;28;20196;-67
2022/07/20 09:18:13;;;;;;;1.33;1.23;;;;;;;30.63;nan;95643.09;5024495;28;20200;-69
2022/07/20 09:20:43;;;;;;;0.50;0.50;;;;;;;30.10;nan;95627.94;5031607;28;20908;-67
2022/07/20 09:23:23;;;;;;;0.40;0.40;;;;;;;30.64;nan;95637.31;5036524;28;20207;-62
2022/07/20 09:26:00;;;;;;;0.20;0.20;;;;;;;31.05;nan;95634.78;5031487;28;20204;-68
2022/07/20 09:28:38;;;;;;;0.67;0.60;;;;;;;31.15;nan;95636.88;5031787;28;20599;-64
2022/07/20 09:31:15;;;;;;;5.40;0.50;;;;;;;31.15;nan;95628.75;5032976;28;20189;-68
2022/07/20 09:34:01;;;;;;;0.30;0.30;;;;;;;30.62;nan;95623.34;5032191;28;20200;-61
2022/07/20 09:36:43;;;;;;;0.20;0.20;;;;;;;31.27;nan;95623.84;5030095;28;20289;-66
2022/07/20 09:39:21;;;;;;;0.20;0.20;;;;;;;31.45;nan;95621.38;5031526;28;20259;-66
2022/07/20 09:41:56;;;;;;;0.40;0.40;;;;;;;31.25;nan;95622.66;5031583;28;20189;-64
2022/07/20 09:44:28;;;;;;;0.63;0.63;;;;;;;30.72;nan;95611.13;5028036;28;20676;-66
2022/07/20 09:46:56;;;;;;;0.30;0.30;;;;;;;31.28;nan;95608.38;5031077;28;20204;-64
2022/07/20 09:49:29;;;;;;;0.40;0.40;;;;;;;31.66;nan;95605.34;5051461;28;20197;-65
2022/07/20 09:51:58;;;;;;;0.77;0.73;;;;;;;31.91;nan;95605.59;5029865;28;20606;-66
2022/07/20 09:54:47;;;;;;;0.73;0.70;;;;;;;31.95;nan;95607.19;5024035;28;20262;-69
2022/07/20 09:57:15;;;;;;;0.40;0.40;;;;;;;31.51;nan;95599.00;5025164;28;20188;-67
2022/07/20 09:59:47;;;;;;;0.20;0.20;;;;;;;31.52;nan;95594.34;5026161;28;20217;-68
2022/07/20 10:02:14;;;;;;;0.53;0.30;;;;;;;31.43;nan;95602.78;5031724;28;20212;-64
2022/07/20 10:04:43;;;;;;;1.83;0.37;;;;;;;31.53;nan;95591.25;5051423;28;20245;-66
2022/07/20 10:07:10;;;;;;;0.50;0.50;;;;;;;31.64;nan;95592.16;5023773;28;20873;-67
2022/07/20 10:09:37;;;;;;;1.37;1.00;;;;;;;31.68;nan;95586.75;5019916;28;20193;-64
2022/07/20 10:12:05;;;;;;;0.40;0.40;;;;;;;31.82;nan;95576.06;5039708;28;20193;-65
2022/07/20 10:14:33;;;;;;;0.50;0.50;;;;;;;31.99;nan;95583.59;5041930;28;20200;-65
2022/07/20 10:17:00;;;;;;;0.40;0.40;;;;;;;32.05;nan;95581.31;5028261;28;20294;-65
2022/07/20 10:19:46;;;;;;;0.37;0.37;;;;;;;32.16;nan;95574.81;5036945;28;20213;-64
2022/07/20 10:22:13;;;;;;;0.63;0.63;;;;;;;32.56;nan;95577.44;5041968;28;20726;-66
2022/07/20 10:24:43;;;;;;;0.37;0.37;;;;;;;32.40;nan;95568.00;5019156;28;20205;-67
2022/07/20 10:27:19;;;;;;;0.30;0.30;;;;;;;32.68;nan;95563.53;5042747;28;20244;-66
2022/07/20 10:29:52;;;;;;;1.27;0.73;;;;;;;32.13;nan;95572.88;5046688;28;20231;-66
2022/07/20 10:32:28;;;;;;;0.30;0.30;;;;;;;32.21;nan;95560.91;5042610;28;20216;-65
2022/07/20 10:35:01;;;;;;;0.30;0.30;;;;;;;32.11;nan;95553.47;5046878;28;20273;-65
2022/07/20 10:37:39;;;;;;;0.50;0.50;;;;;;;32.60;nan;95556.53;5049542;28;20207;-68
2022/07/20 10:40:12;;;;;;;1.97;0.47;;;;;;;32.69;nan;95548.81;5031299;28;20370;-65
2022/07/20 10:42:41;;;;;;;0.50;0.50;;;;;;;32.48;nan;95548.69;5011121;28;20688;-68
2022/07/20 10:45:11;;;;;;;0.33;0.33;;;;;;;32.59;nan;95549.53;5027538;28;20197;-65
2022/07/20 10:47:53;;;;;;;0.30;0.30;;;;;;;32.34;nan;95547.81;5042670;28;20189;-64
2022/07/20 10:50:32;;;;;;;0.30;0.30;;;;;;;32.81;nan;95537.63;5034043;28;20200;-66
2022/07/20 10:53:21;;;;;;;0.20;0.20;;;;;;;32.90;nan;95541.94;5050717;28;20226;-64
2022/07/20 10:55:51;;;;;;;0.77;0.77;;;;;;;33.05;nan;95535.44;5021878;28;20209;-65
2022/07/20 10:58:24;;;;;;;0.30;0.30;;;;;;;33.28;nan;95527.72;5038814;28;20231;-66
2022/07/20 11:01:07;;;;;;;0.30;0.30;;;;;;;33.53;nan;95526.63;5027309;28;20242;-63
2022/07/20 11:03:40;;;;;;;0.30;0.30;;;;;;;33.05;nan;95533.47;5020121;28;20240;-64
2022/07/20 11:06:07;;;;;;;0.57;0.57;;;;;;;33.70;nan;95530.53;5030428;28;20211;-64
2022/07/20 11:08:41;;;;;;;0.30;0.30;;;;;;;33.54;nan;95525.47;5028030;28;20197;-64
2022/07/20 11:11:17;;;;;;;0.30;0.30;;;;;;;33.84;nan;95527.81;5028266;28;20194;-63
2022/07/20 11:13:46;;;;;;;0.20;0.20;;;;;;;34.11;nan;95518.09;5040557;28;20200;-68
2022/07/20 11:16:13;;;;;;;0.37;0.37;;;;;;;33.83;nan;95529.00;5043066;28;20188;-65
2022/07/20 11:18:40;;;;;;;0.57;0.50;;;;;;;33.77;nan;95519.66;5033597;28;20208;-66
2022/07/20 11:21:09;;;;;;;1.33;0.80;;;;;;;33.64;nan;95513.03;5024298;28;20225;-67
2022/07/20 11:23:49;;;;;;;6.10;3.77;;;;;;;33.68;nan;95513.81;5049044;28;20200;-68
2022/07/20 11:26:18;;;;;;;1.10;1.10;;;;;;;33.46;nan;95506.81;5048598;28;20204;-65
2022/07/20 11:28:57;;;;;;;0.83;0.50;;;;;;;34.18;nan;95501.75;5038415;28;20221;-66
2022/07/20 11:31:28;;;;;;;0.40;0.40;;;;;;;34.44;nan;95500.53;5021667;28;20193;-67
2022/07/20 11:33:57;;;;;;;0.63;0.63;;;;;;;34.49;nan;95490.06;5029270;28;20240;-66
2022/07/20 11:36:27;;;;;;;0.30;0.30;;;;;;;33.79;nan;95506.47;5028226;28;20740;-67
2022/07/20 11:39:09;;;;;;;0.40;0.40;;;;;;;34.26;nan;95492.44;5029329;28;20186;-65
2022/07/20 11:41:43;;;;;;;0.27;0.27;;;;;;;33.25;nan;95482.31;5028074;28;20586;-64
2022/07/20 11:44:21;;;;;;;0.50;0.43;;;;;;;33.49;nan;95481.59;5026746;28;20266;-65
2022/07/20 11:46:48;;;;;;;0.40;0.40;;;;;;;33.85;nan;95499.44;5026681;28;20203;-70
2022/07/20 11:49:17;;;;;;;0.40;0.40;;;;;;;33.71;nan;95486.66;5028611;28;20194;-68
2022/07/20 11:51:59;;;;;;;2.77;0.70;;;;;;;33.62;nan;95491.69;5026899;28;20224;-65
2022/07/20 11:54:29;;;;;;;0.53;0.50;;;;;;;34.22;nan;95491.66;5029019;28;20197;-64
2022/07/20 11:56:57;;;;;;;0.50;0.50;;;;;;;33.90;nan;95490.91;5026317;28;20242;-66
2022/07/20 11:59:24;;;;;;;0.30;0.30;;;;;;;34.03;nan;95481.22;5029395;28;20193;-69
2022/07/20 12:01:56;;;;;;;0.30;0.30;;;;;;;34.12;nan;95492.47;5029565;28;20197;-68